Time;durP1;ratioP1;P1;durP2;ratioP2;P2;SDS_P1;SDS_P2;PMS_P1;PMS_P2;Temp;Humidity;BMP_temperature;BMP_pressure;BME280_temperature;BME280_humidity;BME280_pressure;Samples;Min_cycle;Max_cycle;Signal;HPM_P1;HPM_P2
2022/04/14 00:00:28;;;;;;;5.57;2.45;;;;;;;;;;10397689;28;20037;-44
2022/04/14 00:05:28;;;;;;;3.95;2.05;;;;;;;;;;10408637;28;20044;-44
2022/04/14 00:10:29;;;;;;;4.22;2.13;;;;;;;;;;10379275;28;20073;-43
2022/04/14 00:15:30;;;;;;;3.78;2.15;;;;;;;;;;10382470;28;20092;-44
2022/04/14 00:20:30;;;;;;;4.68;2.22;;;;;;;;;;10393498;28;20033;-44
2022/04/14 00:25:31;;;;;;;7.70;2.10;;;;;;;;;;10383330;28;20029;-44
2022/04/14 00:30:31;;;;;;;3.42;2.15;;;;;;;;;;10380666;28;20431;-45
2022/04/14 00:35:32;;;;;;;8.07;2.70;;;;;;;;;;10396728;28;20481;-46
2022/04/14 00:40:32;;;;;;;4.85;2.17;;;;;;;;;;10371560;28;20408;-45
2022/04/14 00:45:33;;;;;;;4.80;2.03;;;;;;;;;;10381870;28;20370;-46
2022/04/14 00:50:34;;;;;;;4.35;1.92;;;;;;;;;;10394035;28;20044;-45
2022/04/14 00:55:34;;;;;;;5.00;2.08;;;;;;;;;;10383244;28;20029;-46
2022/04/14 01:00:35;;;;;;;3.63;2.25;;;;;;;;;;10385172;28;20017;-47
2022/04/14 01:05:37;;;;;;;8.85;2.38;;;;;;;;;;10400847;28;20033;-45
2022/04/14 01:10:40;;;;;;;2.55;2.22;;;;;;;;;;10409473;28;20182;-46
2022/04/14 01:15:41;;;;;;;7.63;2.40;;;;;;;;;;10391904;28;20026;-46
2022/04/14 01:20:43;;;;;;;5.63;2.20;;;;;;;;;;10402604;28;20029;-46
2022/04/14 01:25:44;;;;;;;3.28;2.20;;;;;;;;;;10390002;28;20095;-45
2022/04/14 01:30:44;;;;;;;6.50;1.98;;;;;;;;;;10385881;28;20569;-47
2022/04/14 01:35:45;;;;;;;6.78;1.80;;;;;;;;;;10375041;28;20030;-45
2022/04/14 01:40:45;;;;;;;4.65;2.10;;;;;;;;;;10394460;28;20432;-44
2022/04/14 01:45:50;;;;;;;3.92;1.80;;;;;;;;;;10386080;28;20380;-46
2022/04/14 01:50:51;;;;;;;4.55;2.15;;;;;;;;;;10406737;28;20029;-46
2022/04/14 01:55:52;;;;;;;4.60;2.60;;;;;;;;;;10406577;28;20073;-44
2022/04/14 02:00:52;;;;;;;8.52;2.25;;;;;;;;;;10408605;28;20032;-44
2022/04/14 02:05:53;;;;;;;2.75;1.90;;;;;;;;;;10387133;28;20037;-45
2022/04/14 02:10:53;;;;;;;3.08;1.98;;;;;;;;;;10384032;28;20034;-44
2022/04/14 02:15:54;;;;;;;3.00;1.80;;;;;;;;;;10395473;28;20179;-47
2022/04/14 02:20:55;;;;;;;4.88;2.03;;;;;;;;;;10396957;28;20041;-45
2022/04/14 02:25:55;;;;;;;6.03;2.40;;;;;;;;;;10388802;28;20026;-46
2022/04/14 02:30:56;;;;;;;4.07;1.90;;;;;;;;;;10398205;28;20034;-45
2022/04/14 02:35:56;;;;;;;4.07;1.95;;;;;;;;;;10379763;28;20033;-45
2022/04/14 02:40:57;;;;;;;3.17;2.10;;;;;;;;;;10406381;28;20041;-45
2022/04/14 02:45:59;;;;;;;4.70;2.10;;;;;;;;;;10383489;28;20026;-44
2022/04/14 02:51:00;;;;;;;6.20;2.25;;;;;;;;;;10402851;28;20492;-44
2022/04/14 02:56:00;;;;;;;5.93;1.90;;;;;;;;;;10412112;28;20057;-47
2022/04/14 03:01:01;;;;;;;4.18;2.05;;;;;;;;;;10411626;28;20056;-44
2022/04/14 03:06:02;;;;;;;2.55;2.00;;;;;;;;;;10415129;28;20029;-47
2022/04/14 03:11:03;;;;;;;3.17;2.20;;;;;;;;;;10415583;28;20353;-45
2022/04/14 03:16:04;;;;;;;3.05;2.08;;;;;;;;;;10403740;28;20121;-44
2022/04/14 03:21:05;;;;;;;2.10;1.90;;;;;;;;;;10374648;28;20105;-45
2022/04/14 03:26:08;;;;;;;3.17;2.47;;;;;;;;;;10378733;28;20473;-45
2022/04/14 03:31:10;;;;;;;3.35;1.70;;;;;;;;;;10398780;28;20117;-45
2022/04/14 03:36:10;;;;;;;6.30;2.30;;;;;;;;;;10387820;28;20030;-46
2022/04/14 03:41:11;;;;;;;3.72;2.28;;;;;;;;;;10412852;28;20401;-44
2022/04/14 03:46:14;;;;;;;3.97;1.70;;;;;;;;;;10414291;28;20087;-46
2022/04/14 03:51:15;;;;;;;7.00;2.40;;;;;;;;;;10414022;28;20120;-45
2022/04/14 03:56:16;;;;;;;4.78;2.10;;;;;;;;;;10383544;28;20045;-46
2022/04/14 04:01:17;;;;;;;6.53;2.38;;;;;;;;;;10408441;28;20154;-44
2022/04/14 04:06:17;;;;;;;3.15;2.40;;;;;;;;;;10401065;28;20060;-44
2022/04/14 04:11:18;;;;;;;8.32;2.15;;;;;;;;;;10372869;28;20083;-45
2022/04/14 04:16:18;;;;;;;4.10;2.13;;;;;;;;;;10395413;28;20496;-48
2022/04/14 04:21:19;;;;;;;3.50;2.20;;;;;;;;;;10387727;28;20180;-44
2022/04/14 04:26:19;;;;;;;2.25;2.00;;;;;;;;;;10406135;28;20496;-44
2022/04/14 04:31:20;;;;;;;2.67;2.40;;;;;;;;;;10392895;28;20038;-44
2022/04/14 04:36:21;;;;;;;2.15;2.00;;;;;;;;;;10401155;28;20056;-44
2022/04/14 04:41:22;;;;;;;2.92;2.17;;;;;;;;;;10401805;28;20477;-45
2022/04/14 04:46:22;;;;;;;5.53;2.03;;;;;;;;;;10372459;28;20045;-44
2022/04/14 04:51:24;;;;;;;2.95;2.30;;;;;;;;;;10377565;28;20057;-45
2022/04/14 04:56:26;;;;;;;2.85;2.00;;;;;;;;;;10392725;28;20405;-45
2022/04/14 05:01:26;;;;;;;2.80;2.22;;;;;;;;;;10410675;28;20045;-46
2022/04/14 05:06:27;;;;;;;3.75;1.77;;;;;;;;;;10409090;28;20132;-45
2022/04/14 05:11:27;;;;;;;2.92;2.00;;;;;;;;;;10390581;28;20037;-46
2022/04/14 05:16:28;;;;;;;6.00;2.40;;;;;;;;;;10411012;28;20033;-44
2022/04/14 05:21:28;;;;;;;2.70;2.00;;;;;;;;;;10406158;28;20070;-56
2022/04/14 05:26:29;;;;;;;18.70;2.67;;;;;;;;;;10389597;28;20026;-49
2022/04/14 05:31:30;;;;;;;4.30;2.13;;;;;;;;;;10394373;28;20034;-45
2022/04/14 05:36:37;;;;;;;7.72;2.20;;;;;;;;;;10369427;28;20034;-45
2022/04/14 05:41:43;;;;;;;5.50;1.95;;;;;;;;;;10377902;28;20032;-46
2022/04/14 05:46:44;;;;;;;26.92;2.42;;;;;;;;;;10377645;28;20404;-47
2022/04/14 05:51:44;;;;;;;33.13;7.13;;;;;;;;;;10396988;28;20030;-56
2022/04/14 05:56:45;;;;;;;14.20;8.32;;;;;;;;;;10377788;28;20502;-53
2022/04/14 06:01:46;;;;;;;16.02;9.50;;;;;;;;;;10398590;28;20562;-53
2022/04/14 06:06:47;;;;;;;19.27;8.23;;;;;;;;;;10382393;28;20037;-55
2022/04/14 06:11:47;;;;;;;14.60;8.48;;;;;;;;;;10382434;28;20045;-51
2022/04/14 06:16:48;;;;;;;19.58;9.25;;;;;;;;;;10397262;28;20033;-56
2022/04/14 06:21:48;;;;;;;17.88;9.05;;;;;;;;;;10394295;28;20083;-56
2022/04/14 06:26:50;;;;;;;23.15;8.10;;;;;;;;;;10405614;28;20028;-63
2022/04/14 06:31:52;;;;;;;23.30;6.57;;;;;;;;;;10395873;28;20045;-53
2022/04/14 06:36:52;;;;;;;25.45;6.75;;;;;;;;;;10386077;28;20030;-44
2022/04/14 06:41:53;;;;;;;14.57;7.25;;;;;;;;;;10390834;28;20079;-60
2022/04/14 06:46:53;;;;;;;20.77;6.88;;;;;;;;;;10370383;28;20045;-45
2022/04/14 06:51:54;;;;;;;15.57;5.88;;;;;;;;;;10367016;28;20029;-44
2022/04/14 06:56:54;;;;;;;18.00;5.60;;;;;;;;;;10367524;28;20046;-53
2022/04/14 07:01:55;;;;;;;18.70;5.47;;;;;;;;;;10381110;28;20029;-55
2022/04/14 07:06:56;;;;;;;17.38;5.68;;;;;;;;;;10407901;28;20029;-43
2022/04/14 07:11:58;;;;;;;16.85;5.13;;;;;;;;;;10406439;28;20384;-52
2022/04/14 07:16:59;;;;;;;15.57;6.13;;;;;;;;;;10366531;28;20481;-59
2022/04/14 07:22:00;;;;;;;10.60;5.82;;;;;;;;;;10366673;28;20181;-56
2022/04/14 07:27:01;;;;;;;11.02;5.07;;;;;;;;;;10367511;28;20459;-43
2022/04/14 07:32:01;;;;;;;15.05;5.75;;;;;;;;;;10369783;28;20034;-43
2022/04/14 07:37:02;;;;;;;9.98;4.63;;;;;;;;;;10374961;28;20041;-43
2022/04/14 07:42:02;;;;;;;11.05;4.72;;;;;;;;;;10373214;28;20048;-52
2022/04/14 07:47:03;;;;;;;16.65;5.25;;;;;;;;;;10374215;28;20073;-42
2022/04/14 07:52:04;;;;;;;10.50;4.82;;;;;;;;;;10373255;28;20497;-46
2022/04/14 07:57:05;;;;;;;12.52;5.18;;;;;;;;;;10395678;28;20154;-53
2022/04/14 08:02:06;;;;;;;13.15;5.18;;;;;;;;;;10413410;28;20157;-44
2022/04/14 08:07:07;;;;;;;10.73;5.20;;;;;;;;;;10408978;28;20025;-46
2022/04/14 08:12:08;;;;;;;18.33;4.60;;;;;;;;;;10413411;28;20041;-53
2022/04/14 08:17:09;;;;;;;13.82;4.65;;;;;;;;;;10411461;28;20044;-43
2022/04/14 08:22:09;;;;;;;14.27;4.85;;;;;;;;;;10395978;28;20044;-43
2022/04/14 08:27:10;;;;;;;12.10;4.65;;;;;;;;;;10411639;28;20022;-43
2022/04/14 08:32:11;;;;;;;9.15;4.18;;;;;;;;;;10397210;28;20234;-47
2022/04/14 08:37:12;;;;;;;7.13;4.40;;;;;;;;;;10404473;28;20234;-46
2022/04/14 08:42:20;;;;;;;14.20;3.92;;;;;;;;;;10408283;28;20029;-49
2022/04/14 08:47:21;;;;;;;9.43;4.13;;;;;;;;;;10449085;28;20029;-54
2022/04/14 08:52:22;;;;;;;8.88;4.15;;;;;;;;;;10415457;28;20021;-46
2022/04/14 08:57:24;;;;;;;13.38;4.47;;;;;;;;;;10430534;28;20225;-46
2022/04/14 09:02:26;;;;;;;13.02;4.53;;;;;;;;;;10411269;28;20041;-43
2022/04/14 09:07:27;;;;;;;9.80;4.38;;;;;;;;;;10410124;28;20045;-46
2022/04/14 09:12:28;;;;;;;6.95;3.85;;;;;;;;;;10410189;28;20033;-43
2022/04/14 09:17:29;;;;;;;11.23;3.90;;;;;;;;;;10409660;28;20068;-53
2022/04/14 09:22:30;;;;;;;7.68;3.90;;;;;;;;;;10409861;28;20120;-46
2022/04/14 09:27:41;;;;;;;10.20;4.10;;;;;;;;;;10408572;28;20444;-43
2022/04/14 09:32:45;;;;;;;10.63;3.42;;;;;;;;;;10402509;28;20501;-43
2022/04/14 09:37:59;;;;;;;10.35;4.13;;;;;;;;;;10402231;28;20103;-42
2022/04/14 09:43:00;;;;;;;9.85;4.65;;;;;;;;;;10405034;28;20399;-43
2022/04/14 09:48:10;;;;;;;10.52;4.18;;;;;;;;;;10406596;28;20061;-43
2022/04/14 09:53:18;;;;;;;9.70;4.25;;;;;;;;;;10404872;28;20022;-56
2022/04/14 09:58:24;;;;;;;11.93;3.92;;;;;;;;;;10407294;28;20049;-42
2022/04/14 10:03:30;;;;;;;7.40;3.55;;;;;;;;;;10404654;28;20389;-44
2022/04/14 10:08:48;;;;;;;13.07;4.30;;;;;;;;;;10407124;28;20029;-43
2022/04/14 10:13:49;;;;;;;7.15;3.88;;;;;;;;;;10399243;28;20377;-43
2022/04/14 10:18:52;;;;;;;7.03;4.00;;;;;;;;;;10408981;28;20325;-43
2022/04/14 10:23:52;;;;;;;6.88;3.45;;;;;;;;;;10408040;28;20163;-43
2022/04/14 10:28:55;;;;;;;6.25;3.80;;;;;;;;;;10407598;28;20037;-42
2022/04/14 10:33:57;;;;;;;9.63;3.75;;;;;;;;;;10407520;28;20056;-43
2022/04/14 10:38:59;;;;;;;8.10;3.42;;;;;;;;;;10407900;28;20028;-43
2022/04/14 10:44:02;;;;;;;8.38;3.50;;;;;;;;;;10406160;28;20128;-43
2022/04/14 10:49:32;;;;;;;6.32;3.75;;;;;;;;;;10407280;28;20040;-43
2022/04/14 10:54:59;;;;;;;6.78;3.60;;;;;;;;;;10408295;28;20057;-42
2022/04/14 10:59:59;;;;;;;8.93;3.95;;;;;;;;;;10432370;28;20049;-43
2022/04/14 11:05:00;;;;;;;7.55;3.22;;;;;;;;;;10407303;28;20028;-43
2022/04/14 11:10:01;;;;;;;5.75;3.22;;;;;;;;;;10412577;28;20033;-43
2022/04/14 11:15:04;;;;;;;14.23;3.60;;;;;;;;;;10413988;28;20049;-42
2022/04/14 11:20:16;;;;;;;5.43;2.90;;;;;;;;;;10411744;28;20374;-42
2022/04/14 11:25:52;;;;;;;9.68;3.53;;;;;;;;;;10374547;28;20389;-43
2022/04/14 11:30:56;;;;;;;5.28;3.10;;;;;;;;;;10379246;28;20381;-42
2022/04/14 11:36:22;;;;;;;5.78;3.42;;;;;;;;;;10376845;28;20409;-45
2022/04/14 11:41:37;;;;;;;7.90;3.83;;;;;;;;;;10413147;28;20493;-43
2022/04/14 11:46:45;;;;;;;6.85;3.28;;;;;;;;;;10413408;28;20065;-45
2022/04/14 11:51:51;;;;;;;6.43;3.47;;;;;;;;;;10410389;28;20061;-44
2022/04/14 11:56:54;;;;;;;6.53;3.30;;;;;;;;;;10413320;28;20404;-43
2022/04/14 12:02:00;;;;;;;7.13;3.08;;;;;;;;;;10399845;28;20029;-43
2022/04/14 12:07:01;;;;;;;6.50;3.42;;;;;;;;;;10401820;28;20026;-43
2022/04/14 12:12:18;;;;;;;6.18;3.80;;;;;;;;;;10412676;28;20029;-44
2022/04/14 12:17:22;;;;;;;7.13;3.60;;;;;;;;;;10408662;28;20032;-43
2022/04/14 12:22:26;;;;;;;9.30;3.72;;;;;;;;;;10408258;28;20029;-44
2022/04/14 12:27:39;;;;;;;10.95;3.75;;;;;;;;;;10404320;28;20702;-49
2022/04/14 12:32:42;;;;;;;8.68;3.78;;;;;;;;;;10410698;28;20036;-44
2022/04/14 12:37:43;;;;;;;6.63;3.92;;;;;;;;;;10411912;28;20025;-43
2022/04/14 12:42:44;;;;;;;8.98;3.47;;;;;;;;;;10410756;28;20079;-55
2022/04/14 12:47:47;;;;;;;8.70;4.05;;;;;;;;;;10410306;28;20396;-47
2022/04/14 12:52:54;;;;;;;8.75;3.95;;;;;;;;;;10408909;28;20028;-43
2022/04/14 12:58:12;;;;;;;7.32;4.28;;;;;;;;;;10408305;28;20046;-43
2022/04/14 13:03:16;;;;;;;9.20;3.57;;;;;;;;;;10403885;28;20056;-45
2022/04/14 13:08:33;;;;;;;11.65;4.40;;;;;;;;;;10397168;28;20478;-59
2022/04/14 13:13:34;;;;;;;7.63;3.47;;;;;;;;;;10410567;28;20128;-57
2022/04/14 13:18:35;;;;;;;11.70;3.70;;;;;;;;;;10408301;28;20037;-53
2022/04/14 13:23:36;;;;;;;8.98;3.63;;;;;;;;;;10409191;28;20037;-44
2022/04/14 13:28:36;;;;;;;11.43;3.58;;;;;;;;;;10406970;28;20037;-44
2022/04/14 13:33:37;;;;;;;21.60;4.47;;;;;;;;;;10408270;28;20048;-44
2022/04/14 13:38:38;;;;;;;63.13;4.88;;;;;;;;;;10401516;28;20033;-43
2022/04/14 13:43:39;;;;;;;57.08;7.05;;;;;;;;;;10410087;28;20107;-59
2022/04/14 13:48:39;;;;;;;50.28;5.32;;;;;;;;;;10401019;28;20076;-46
2022/04/14 13:53:40;;;;;;;27.70;5.38;;;;;;;;;;10398436;28;20033;-58
2022/04/14 13:58:41;;;;;;;43.88;5.60;;;;;;;;;;10406915;28;20037;-45
2022/04/14 14:03:41;;;;;;;34.67;5.20;;;;;;;;;;10408587;28;20080;-43
2022/04/14 14:08:42;;;;;;;31.77;4.70;;;;;;;;;;10406234;28;20029;-50
2022/04/14 14:13:44;;;;;;;22.67;3.75;;;;;;;;;;10406919;28;20236;-50
2022/04/14 14:18:45;;;;;;;20.67;4.10;;;;;;;;;;10406992;28;20021;-43
2022/04/14 14:23:46;;;;;;;21.95;3.58;;;;;;;;;;10401853;28;20409;-44
2022/04/14 14:28:46;;;;;;;22.38;3.92;;;;;;;;;;10406690;28;20041;-44
2022/04/14 14:33:47;;;;;;;24.83;3.90;;;;;;;;;;10408330;28;20029;-44
2022/04/14 14:38:47;;;;;;;21.75;3.63;;;;;;;;;;10402672;28;20029;-44
2022/04/14 14:43:48;;;;;;;12.23;3.70;;;;;;;;;;10367381;28;20033;-44
2022/04/14 14:48:49;;;;;;;11.88;3.50;;;;;;;;;;10368436;28;20511;-46
2022/04/14 14:53:50;;;;;;;11.50;3.53;;;;;;;;;;10395369;28;20382;-46
2022/04/14 15:04:11;;;;;;;7.03;3.83;;;;;;;;;;10406770;28;20428;-44
2022/04/14 15:09:12;;;;;;;9.07;3.30;;;;;;;;;;10406447;28;20037;-48
2022/04/14 15:14:13;;;;;;;13.18;3.78;;;;;;;;;;10403078;28;20156;-48
2022/04/14 15:19:14;;;;;;;17.83;3.60;;;;;;;;;;10401709;28;20389;-44
2022/04/14 15:24:14;;;;;;;13.27;3.75;;;;;;;;;;10403778;28;20037;-46
2022/04/14 15:29:15;;;;;;;12.77;3.30;;;;;;;;;;10434563;28;20420;-45
2022/04/14 15:34:17;;;;;;;11.65;4.50;;;;;;;;;;10421232;28;20032;-45
2022/04/14 15:39:17;;;;;;;9.75;3.75;;;;;;;;;;10430943;28;20532;-44
2022/04/14 15:44:18;;;;;;;13.13;4.32;;;;;;;;;;10429584;28;20025;-44
2022/04/14 15:49:18;;;;;;;8.40;3.90;;;;;;;;;;10422269;28;20125;-44
2022/04/14 15:54:19;;;;;;;10.80;3.72;;;;;;;;;;10428966;28;20480;-47
2022/04/14 15:59:20;;;;;;;10.63;4.00;;;;;;;;;;10439684;28;20045;-44
2022/04/14 16:04:20;;;;;;;10.77;4.28;;;;;;;;;;10431144;28;20466;-44
2022/04/14 16:09:21;;;;;;;10.35;4.25;;;;;;;;;;10437564;28;20384;-45
2022/04/14 16:14:21;;;;;;;10.05;4.40;;;;;;;;;;10433851;28;20465;-43
2022/04/14 16:19:23;;;;;;;11.07;4.30;;;;;;;;;;10437083;28;20025;-44
2022/04/14 16:24:24;;;;;;;5.90;3.63;;;;;;;;;;10434790;28;20028;-44
2022/04/14 16:29:24;;;;;;;7.10;3.92;;;;;;;;;;10427759;28;20088;-45
2022/04/14 16:34:25;;;;;;;10.40;4.18;;;;;;;;;;10407944;28;20025;-43
2022/04/14 16:39:26;;;;;;;9.75;4.07;;;;;;;;;;10427472;28;20070;-43
2022/04/14 16:44:26;;;;;;;5.93;3.55;;;;;;;;;;10418786;28;20033;-46
2022/04/14 16:49:27;;;;;;;13.25;3.50;;;;;;;;;;10408753;28;20039;-43
2022/04/14 16:54:28;;;;;;;9.35;3.85;;;;;;;;;;10406085;28;20022;-44
2022/04/14 16:59:28;;;;;;;7.43;3.50;;;;;;;;;;10409351;28;20041;-48
2022/04/14 17:04:31;;;;;;;13.60;3.17;;;;;;;;;;10398110;28;20030;-45
2022/04/14 17:09:32;;;;;;;14.23;3.50;;;;;;;;;;10397475;28;20104;-45
2022/04/14 17:14:33;;;;;;;11.25;3.78;;;;;;;;;;10401927;28;20370;-46
2022/04/14 17:19:33;;;;;;;14.00;4.10;;;;;;;;;;10400766;28;20037;-45
2022/04/14 17:24:34;;;;;;;8.80;3.22;;;;;;;;;;10405559;28;20037;-44
2022/04/14 17:29:35;;;;;;;8.57;3.22;;;;;;;;;;10406661;28;20052;-44
2022/04/14 17:34:36;;;;;;;17.45;4.53;;;;;;;;;;10396507;28;20125;-42
2022/04/14 17:39:36;;;;;;;24.80;5.15;;;;;;;;;;10393485;28;20432;-42
2022/04/14 17:44:37;;;;;;;24.63;5.70;;;;;;;;;;10405139;28;20044;-43
2022/04/14 17:49:38;;;;;;;34.70;5.20;;;;;;;;;;10395492;28;20033;-43
2022/04/14 17:54:40;;;;;;;18.60;5.05;;;;;;;;;;10405558;28;20069;-45
2022/04/14 17:59:41;;;;;;;16.33;4.40;;;;;;;;;;10408620;28;20408;-42
2022/04/14 18:04:42;;;;;;;16.83;4.70;;;;;;;;;;10373874;28;20030;-42
2022/04/14 18:09:43;;;;;;;22.85;4.53;;;;;;;;;;10368783;28;20034;-42
2022/04/14 18:14:43;;;;;;;15.65;4.60;;;;;;;;;;10367850;28;20030;-42
2022/04/14 18:19:44;;;;;;;21.25;5.13;;;;;;;;;;10392143;28;20033;-42
2022/04/14 18:24:45;;;;;;;14.60;4.65;;;;;;;;;;10409049;28;20427;-42
2022/04/14 18:29:45;;;;;;;14.88;5.00;;;;;;;;;;10405537;28;20060;-42
2022/04/14 18:34:46;;;;;;;13.15;4.30;;;;;;;;;;10408835;28;20033;-42
2022/04/14 18:39:47;;;;;;;11.85;4.95;;;;;;;;;;10404554;28;20040;-42
2022/04/14 18:44:47;;;;;;;18.63;4.78;;;;;;;;;;10392810;28;20525;-43
2022/04/14 18:49:49;;;;;;;14.93;5.18;;;;;;;;;;10407687;28;20534;-42
2022/04/14 18:54:51;;;;;;;14.07;5.18;;;;;;;;;;10408257;28;20018;-42
2022/04/14 18:59:51;;;;;;;22.83;6.40;;;;;;;;;;10375270;28;20141;-44
2022/04/14 19:04:52;;;;;;;23.83;5.68;;;;;;;;;;10403599;28;20029;-42
2022/04/14 19:09:53;;;;;;;20.60;5.68;;;;;;;;;;10408209;28;20025;-42
2022/04/14 19:14:53;;;;;;;14.43;5.15;;;;;;;;;;10403554;28;20069;-43
2022/04/14 19:19:54;;;;;;;10.70;5.70;;;;;;;;;;10407632;28;20056;-45
2022/04/14 19:24:55;;;;;;;14.02;6.00;;;;;;;;;;10388556;28;20029;-44
2022/04/14 19:29:55;;;;;;;15.15;5.35;;;;;;;;;;10373874;28;20061;-42
2022/04/14 19:34:56;;;;;;;16.17;5.65;;;;;;;;;;10388516;28;20034;-52
2022/04/14 19:39:58;;;;;;;18.35;5.43;;;;;;;;;;10415261;28;20029;-43
2022/04/14 19:44:58;;;;;;;19.15;5.70;;;;;;;;;;10404140;28;20055;-43
2022/04/14 19:50:00;;;;;;;12.00;5.85;;;;;;;;;;10402515;28;20034;-43
2022/04/14 20:00:15;;;;;;;15.70;5.70;;;;;;;;;;10446403;28;20099;-45
2022/04/14 20:05:16;;;;;;;12.88;4.78;;;;;;;;;;10452583;28;20029;-41
2022/04/14 20:10:19;;;;;;;9.68;5.10;;;;;;;;;;10451656;28;20037;-41
2022/04/14 20:15:19;;;;;;;13.55;5.80;;;;;;;;;;10452077;28;20079;-47
2022/04/14 20:20:20;;;;;;;20.25;5.60;;;;;;;;;;10452495;28;20094;-48
2022/04/14 20:25:21;;;;;;;16.25;5.10;;;;;;;;;;10452421;28;20107;-47
2022/04/14 20:30:22;;;;;;;12.60;5.22;;;;;;;;;;10448610;28;20032;-47
2022/04/14 20:35:23;;;;;;;13.57;6.20;;;;;;;;;;10454118;28;20029;-46
2022/04/14 20:40:23;;;;;;;12.95;5.68;;;;;;;;;;10451765;28;20047;-43
2022/04/14 20:45:24;;;;;;;16.13;5.72;;;;;;;;;;10438401;28;20037;-48
2022/04/14 20:50:25;;;;;;;10.90;5.32;;;;;;;;;;10450397;28;20044;-50
2022/04/14 20:55:25;;;;;;;13.52;5.93;;;;;;;;;;10423132;28;20654;-48
2022/04/14 21:00:26;;;;;;;16.92;6.60;;;;;;;;;;10434919;28;20715;-46
2022/04/14 21:05:26;;;;;;;13.45;6.00;;;;;;;;;;10449311;28;20497;-42
2022/04/14 21:10:27;;;;;;;18.40;6.30;;;;;;;;;;10452460;28;20392;-46
2022/04/14 21:15:28;;;;;;;17.63;6.50;;;;;;;;;;10437161;28;20032;-46
2022/04/14 21:20:29;;;;;;;27.20;8.23;;;;;;;;;;10434294;28;20025;-47
2022/04/14 21:25:30;;;;;;;34.25;7.47;;;;;;;;;;10431526;28;20102;-48
2022/04/14 21:30:31;;;;;;;27.88;7.22;;;;;;;;;;10450924;28;20024;-48
2022/04/14 21:35:31;;;;;;;23.38;7.47;;;;;;;;;;10445108;28;20033;-48
2022/04/14 21:40:32;;;;;;;21.95;7.07;;;;;;;;;;10438984;28;20025;-43
2022/04/14 21:45:34;;;;;;;21.50;6.85;;;;;;;;;;10418355;28;20025;-40
2022/04/14 21:50:36;;;;;;;16.77;7.18;;;;;;;;;;10420767;28;20045;-48
2022/04/14 21:55:37;;;;;;;21.92;6.40;;;;;;;;;;10422708;28;20038;-47
2022/04/14 22:00:47;;;;;;;23.08;7.30;;;;;;;;;;10414166;28;20035;-46
2022/04/14 22:05:48;;;;;;;22.42;6.05;;;;;;;;;;10462890;28;20064;-45
2022/04/14 22:10:49;;;;;;;18.88;6.32;;;;;;;;;;10465169;28;20026;-47
2022/04/14 22:15:50;;;;;;;18.48;6.30;;;;;;;;;;10442408;28;20500;-40
2022/04/14 22:20:51;;;;;;;14.02;5.88;;;;;;;;;;10427371;28;20500;-40
2022/04/14 22:25:52;;;;;;;12.07;6.13;;;;;;;;;;10416484;28;20086;-47
2022/04/14 22:30:53;;;;;;;22.20;6.65;;;;;;;;;;10448069;28;20036;-46
2022/04/14 22:35:53;;;;;;;16.58;5.97;;;;;;;;;;10449609;28;20380;-47
2022/04/14 22:40:54;;;;;;;11.05;5.63;;;;;;;;;;10430317;28;20029;-41
2022/04/14 22:45:55;;;;;;;15.10;6.20;;;;;;;;;;10429657;28;20159;-44
2022/04/14 22:50:55;;;;;;;14.10;5.65;;;;;;;;;;10409134;28;20377;-42
2022/04/14 22:55:56;;;;;;;11.20;5.53;;;;;;;;;;10425643;28;20050;-40
2022/04/14 23:00:56;;;;;;;16.55;5.75;;;;;;;;;;10412923;28;20480;-41
2022/04/14 23:05:58;;;;;;;15.15;5.50;;;;;;;;;;10430486;28;20541;-40
2022/04/14 23:10:58;;;;;;;20.88;6.28;;;;;;;;;;10457051;28;20031;-41
2022/04/14 23:16:01;;;;;;;15.07;5.43;;;;;;;;;;10416486;28;20029;-47
2022/04/14 23:21:03;;;;;;;10.77;5.40;;;;;;;;;;10416807;28;20025;-43
2022/04/14 23:26:03;;;;;;;16.25;5.75;;;;;;;;;;10451315;28;20086;-46
2022/04/14 23:31:04;;;;;;;25.80;6.30;;;;;;;;;;10456709;28;20542;-43
2022/04/14 23:36:05;;;;;;;13.20;5.43;;;;;;;;;;10454166;28;20357;-47
2022/04/14 23:41:11;;;;;;;16.08;5.05;;;;;;;;;;10456377;28;20021;-41
2022/04/14 23:46:12;;;;;;;14.10;5.22;;;;;;;;;;10455621;28;20392;-40
2022/04/14 23:51:13;;;;;;;11.10;5.20;;;;;;;;;;10417884;28;20037;-42
2022/04/14 23:56:13;;;;;;;9.90;4.80;;;;;;;;;;10414709;28;20496;-43
